Time;durP1;ratioP1;P1;durP2;ratioP2;P2;SDS_P1;SDS_P2;PMS_P1;PMS_P2;Temp;Humidity;BMP_temperature;BMP_pressure;BME280_temperature;BME280_humidity;BME280_pressure;Samples;Min_cycle;Max_cycle;Signal;HPM_P1;HPM_P2
2023/04/12 00:03:09;;;;;;;0.00;0.00;;;;;;;10.14;100.00;100651.81;10408015;28;20566;-80
2023/04/12 00:08:10;;;;;;;0.45;0.28;;;;;;;10.09;100.00;100635.34;10404713;28;20057;-79
2023/04/12 00:13:12;;;;;;;0.15;0.10;;;;;;;9.99;100.00;100628.25;10411124;28;20043;-83
2023/04/12 00:18:13;;;;;;;0.00;0.00;;;;;;;9.90;100.00;100622.91;10403011;28;20065;-80
2023/04/12 00:23:16;;;;;;;0.25;0.20;;;;;;;9.69;100.00;100596.66;10410037;28;20034;-80
2023/04/12 00:28:17;;;;;;;0.10;0.10;;;;;;;9.74;100.00;100578.78;10404712;28;20416;-80
2023/04/12 00:33:19;;;;;;;1.05;0.30;;;;;;;9.79;100.00;100579.75;10406325;28;20072;-79
2023/04/12 00:38:20;;;;;;;0.00;0.00;;;;;;;9.73;100.00;100571.91;10399176;28;20128;-79
2023/04/12 00:43:26;;;;;;;0.63;0.03;;;;;;;9.58;100.00;100554.41;10391073;28;20096;-80
2023/04/12 00:48:28;;;;;;;0.00;0.00;;;;;;;9.44;100.00;100541.19;10417153;28;20646;-80
2023/04/12 00:53:30;;;;;;;0.00;0.00;;;;;;;9.57;100.00;100529.50;10408350;28;20054;-80
2023/04/12 00:58:32;;;;;;;0.05;0.05;;;;;;;9.32;100.00;100512.63;10412224;28;20168;-80
2023/04/12 01:03:33;;;;;;;0.93;0.22;;;;;;;9.18;100.00;100495.16;10410386;28;20463;-79
2023/04/12 01:09:19;;;;;;;0.00;0.00;;;;;;;9.31;100.00;100480.88;10410327;28;20091;-80
2023/04/12 01:14:40;;;;;;;0.00;0.00;;;;;;;9.34;100.00;100462.13;10391089;28;20132;-80
2023/04/12 01:20:08;;;;;;;0.43;0.20;;;;;;;9.18;100.00;100459.19;10414495;28;20532;-80
2023/04/12 01:25:28;;;;;;;0.00;0.00;;;;;;;9.24;100.00;100449.88;10418376;28;20140;-78
2023/04/12 01:30:31;;;;;;;0.25;0.15;;;;;;;9.10;100.00;100429.84;10384299;28;20041;-80
2023/04/12 01:35:33;;;;;;;0.00;0.00;;;;;;;9.15;100.00;100417.13;10409031;28;20046;-79
2023/04/12 01:40:39;;;;;;;0.10;0.10;;;;;;;9.16;100.00;100375.13;10407578;28;20431;-80
2023/04/12 01:45:40;;;;;;;0.30;0.30;;;;;;;8.87;100.00;100376.19;10410971;28;20095;-79
2023/04/12 01:50:47;;;;;;;0.00;0.00;;;;;;;9.17;100.00;100364.03;10413386;28;20041;-78
2023/04/12 01:55:50;;;;;;;0.00;0.00;;;;;;;8.80;100.00;100340.03;10402765;28;20120;-79
2023/04/12 02:00:53;;;;;;;0.52;0.10;;;;;;;8.93;100.00;100318.09;10409724;28;20075;-80
2023/04/12 02:05:57;;;;;;;0.00;0.00;;;;;;;8.73;100.00;100303.09;10410431;28;20049;-80
2023/04/12 02:10:59;;;;;;;7.38;0.30;;;;;;;8.87;100.00;100283.72;10406556;28;20120;-80
2023/04/12 02:16:01;;;;;;;0.03;0.03;;;;;;;8.78;100.00;100269.81;10415034;28;20049;-79
2023/04/12 02:21:06;;;;;;;0.38;0.10;;;;;;;8.83;100.00;100248.50;10410283;28;20518;-79
2023/04/12 02:26:11;;;;;;;0.17;0.17;;;;;;;8.85;100.00;100236.56;10408804;28;20061;-79
2023/04/12 02:31:14;;;;;;;0.55;0.28;;;;;;;8.76;100.00;100225.22;10406057;28;20129;-80
2023/04/12 02:36:17;;;;;;;2.72;0.20;;;;;;;8.63;100.00;100199.28;10377666;28;20139;-80
2023/04/12 02:41:21;;;;;;;0.00;0.00;;;;;;;8.63;100.00;100186.44;10408180;28;20083;-79
2023/04/12 02:46:25;;;;;;;0.95;0.55;;;;;;;8.74;100.00;100176.41;10400602;28;20047;-80
2023/04/12 02:51:32;;;;;;;1.30;0.70;;;;;;;8.72;100.00;100152.38;10388838;28;20136;-80
2023/04/12 02:56:35;;;;;;;0.00;0.00;;;;;;;8.78;100.00;100125.97;10397290;28;20049;-79
2023/04/12 03:01:45;;;;;;;0.55;0.00;;;;;;;8.60;100.00;100111.06;10410315;28;20069;-80
2023/04/12 03:06:57;;;;;;;0.60;0.00;;;;;;;8.75;100.00;100101.06;10412923;28;20053;-80
2023/04/12 03:12:06;;;;;;;0.00;0.00;;;;;;;8.66;100.00;100090.63;10411406;28;20091;-79
2023/04/12 03:17:13;;;;;;;0.08;0.08;;;;;;;8.70;100.00;100077.00;10395883;28;20132;-80
2023/04/12 03:22:15;;;;;;;1.00;0.20;;;;;;;8.83;100.00;100057.56;10405613;28;20423;-79
2023/04/12 03:27:21;;;;;;;0.00;0.00;;;;;;;8.84;100.00;100054.19;10415879;28;20572;-80
2023/04/12 03:32:25;;;;;;;0.20;0.13;;;;;;;8.77;100.00;100032.63;10402290;28;20045;-79
2023/04/12 03:37:28;;;;;;;0.30;0.20;;;;;;;8.71;100.00;100020.53;10403408;28;20103;-80
2023/04/12 03:42:30;;;;;;;0.10;0.10;;;;;;;8.82;100.00;100012.19;10411508;28;20046;-79
2023/04/12 03:47:48;;;;;;;0.00;0.00;;;;;;;8.80;100.00;99999.31;10412933;28;20049;-80
2023/04/12 03:52:52;;;;;;;0.00;0.00;;;;;;;8.76;100.00;99987.22;10403706;28;20029;-79
2023/04/12 03:57:55;;;;;;;1.00;0.40;;;;;;;8.77;100.00;99986.41;10401375;28;20072;-79
2023/04/12 04:03:02;;;;;;;0.22;0.22;;;;;;;8.96;100.00;99982.47;10414481;28;20069;-80
2023/04/12 04:08:10;;;;;;;0.22;0.22;;;;;;;8.77;100.00;99978.69;10401480;28;20053;-80
2023/04/12 04:13:24;;;;;;;0.57;0.55;;;;;;;8.88;100.00;99966.94;10408942;28;20551;-80
2023/04/12 04:18:31;;;;;;;0.10;0.10;;;;;;;8.86;100.00;99960.88;10412024;28;20055;-80
2023/04/12 04:23:37;;;;;;;0.00;0.00;;;;;;;8.86;100.00;99953.19;10409168;28;20057;-80
2023/04/12 04:28:43;;;;;;;0.00;0.00;;;;;;;8.93;100.00;99953.28;10402842;28;20578;-80
2023/04/12 04:33:49;;;;;;;0.00;0.00;;;;;;;8.85;100.00;99941.19;10399869;28;20052;-79
2023/04/12 04:38:53;;;;;;;0.20;0.20;;;;;;;8.66;100.00;99923.72;10383935;28;20065;-79
2023/04/12 04:44:09;;;;;;;0.08;0.08;;;;;;;8.82;100.00;99905.19;10411318;28;20045;-80
2023/04/12 04:49:16;;;;;;;0.00;0.00;;;;;;;8.83;100.00;99893.19;10399733;28;20548;-80
2023/04/12 04:54:17;;;;;;;0.00;0.00;;;;;;;8.80;100.00;99878.59;10409128;28;20052;-80
2023/04/12 04:59:19;;;;;;;1.27;0.38;;;;;;;8.73;100.00;99874.19;10398935;28;20550;-81
2023/04/12 05:04:20;;;;;;;0.15;0.13;;;;;;;8.60;100.00;99851.72;10401423;28;20061;-79
2023/04/12 05:09:22;;;;;;;0.35;0.35;;;;;;;8.46;100.00;99847.16;10402327;28;20050;-80
2023/04/12 05:14:29;;;;;;;0.63;0.25;;;;;;;9.99;100.00;99866.53;10418443;28;20041;-79
2023/04/12 05:19:46;;;;;;;0.03;0.03;;;;;;;9.75;100.00;99874.84;10405464;28;20073;-79
2023/04/12 05:24:48;;;;;;;1.92;1.27;;;;;;;9.71;100.00;99866.22;10415354;28;20674;-79
2023/04/12 05:29:50;;;;;;;0.57;0.22;;;;;;;9.27;100.00;99848.47;10388852;28;20398;-79
2023/04/12 05:34:53;;;;;;;0.00;0.00;;;;;;;9.49;100.00;99840.19;10378532;28;20038;-79
2023/04/12 05:39:56;;;;;;;0.13;0.03;;;;;;;9.47;100.00;99816.19;10397985;28;20140;-79
2023/04/12 05:44:58;;;;;;;0.13;0.13;;;;;;;9.34;100.00;99802.31;10406055;28;20045;-78
2023/04/12 05:49:59;;;;;;;0.00;0.00;;;;;;;9.58;100.00;99802.59;10414925;28;20550;-78
2023/04/12 05:55:01;;;;;;;0.35;0.35;;;;;;;9.70;100.00;99792.47;10413033;28;20424;-78
2023/04/12 06:00:09;;;;;;;0.38;0.25;;;;;;;9.57;100.00;99791.47;10410136;28;20056;-79
2023/04/12 06:05:15;;;;;;;0.10;0.05;;;;;;;10.00;100.00;99784.22;10408089;28;20508;-80
2023/04/12 06:10:18;;;;;;;0.05;0.05;;;;;;;9.90;100.00;99782.41;10407120;28;20531;-79
2023/04/12 06:15:23;;;;;;;0.08;0.08;;;;;;;9.83;100.00;99786.63;10411838;28;20045;-79
2023/04/12 06:20:27;;;;;;;0.20;0.20;;;;;;;9.67;100.00;99777.00;10398547;28;20103;-79
2023/04/12 06:25:29;;;;;;;0.00;0.00;;;;;;;9.84;100.00;99769.44;10389218;28;20083;-79
2023/04/12 06:30:32;;;;;;;0.30;0.30;;;;;;;9.39;100.00;99766.38;10386597;28;20076;-78
2023/04/12 06:35:33;;;;;;;0.22;0.20;;;;;;;9.19;100.00;99749.03;10407292;28;20068;-79
2023/04/12 06:40:36;;;;;;;0.47;0.10;;;;;;;9.69;100.00;99729.00;10390611;28;20094;-78
2023/04/12 06:45:37;;;;;;;1.27;0.70;;;;;;;9.59;100.00;99722.03;10404582;28;20363;-78
2023/04/12 06:50:39;;;;;;;0.00;0.00;;;;;;;9.40;100.00;99705.53;10406585;28;20076;-79
2023/04/12 06:55:40;;;;;;;0.10;0.10;;;;;;;9.47;100.00;99702.19;10406812;28;20460;-78
2023/04/12 07:00:42;;;;;;;0.75;0.40;;;;;;;9.61;100.00;99689.50;10390079;28;20046;-78
2023/04/12 07:05:44;;;;;;;0.38;0.30;;;;;;;9.62;100.00;99706.66;10400729;28;20532;-79
2023/04/12 07:10:45;;;;;;;0.00;0.00;;;;;;;9.70;100.00;99705.03;10420454;28;20061;-78
2023/04/12 07:15:51;;;;;;;0.80;0.30;;;;;;;9.70;100.00;99692.16;10403770;28;20091;-77
2023/04/12 07:20:55;;;;;;;0.40;0.30;;;;;;;9.87;100.00;99688.88;10417239;28;20113;-77
2023/04/12 07:26:01;;;;;;;0.10;0.10;;;;;;;9.76;100.00;99684.50;10412400;28;20136;-78
2023/04/12 07:31:06;;;;;;;0.22;0.22;;;;;;;9.91;100.00;99672.63;10392483;28;20132;-78
2023/04/12 07:36:08;;;;;;;0.20;0.20;;;;;;;10.19;100.00;99666.00;10412329;28;20041;-78
2023/04/12 07:41:09;;;;;;;0.13;0.10;;;;;;;9.81;100.00;99666.56;10400134;28;20501;-78
2023/04/12 07:46:11;;;;;;;0.88;0.73;;;;;;;9.86;100.00;99643.44;10420645;28;20563;-78
2023/04/12 07:51:12;;;;;;;0.35;0.20;;;;;;;9.99;100.00;99629.81;10412236;28;20945;-78
2023/04/12 07:56:14;;;;;;;0.95;0.77;;;;;;;9.79;100.00;99633.06;10400107;28;20037;-79
2023/04/12 08:01:16;;;;;;;0.17;0.17;;;;;;;10.14;100.00;99623.91;10368290;28;20489;-80
2023/04/12 08:06:17;;;;;;;3.17;0.35;;;;;;;10.04;100.00;99628.13;10410391;28;20519;-78
2023/04/12 08:11:19;;;;;;;0.28;0.10;;;;;;;9.98;100.00;99628.09;10409285;28;20108;-78
2023/04/12 08:16:20;;;;;;;0.45;0.43;;;;;;;10.23;100.00;99628.28;10411592;28;20128;-79
2023/04/12 08:21:22;;;;;;;0.32;0.20;;;;;;;9.89;100.00;99625.44;10403679;28;20139;-78
2023/04/12 08:26:25;;;;;;;0.05;0.05;;;;;;;10.37;100.00;99630.97;10413394;28;20124;-78
2023/04/12 08:31:27;;;;;;;0.40;0.30;;;;;;;10.07;100.00;99635.91;10409473;28;20045;-78
2023/04/12 08:36:29;;;;;;;0.40;0.35;;;;;;;10.01;100.00;99628.13;10398370;28;20480;-77
2023/04/12 08:41:33;;;;;;;0.10;0.10;;;;;;;10.01;100.00;99604.97;10405602;28;20605;-77
2023/04/12 08:46:36;;;;;;;0.20;0.20;;;;;;;10.09;100.00;99615.31;10411694;28;20041;-78
2023/04/12 08:51:39;;;;;;;0.20;0.20;;;;;;;10.34;100.00;99648.94;10413589;28;20045;-77
2023/04/12 08:56:42;;;;;;;0.05;0.05;;;;;;;10.51;100.00;99638.78;10421354;28;20065;-78
2023/04/12 09:01:44;;;;;;;0.00;0.00;;;;;;;10.56;100.00;99647.38;10408637;28;20037;-78
2023/04/12 09:06:46;;;;;;;0.25;0.17;;;;;;;10.71;100.00;99652.63;10407795;28;20095;-78
2023/04/12 09:11:47;;;;;;;0.10;0.10;;;;;;;11.30;100.00;99647.69;10411634;28;20128;-78
2023/04/12 09:16:50;;;;;;;0.22;0.22;;;;;;;11.03;100.00;99649.34;10405364;28;20096;-79
2023/04/12 09:21:55;;;;;;;0.00;0.00;;;;;;;11.72;100.00;99648.66;10413231;28;20475;-79
2023/04/12 09:27:04;;;;;;;0.43;0.20;;;;;;;11.62;100.00;99664.97;10424981;28;20048;-78
2023/04/12 09:32:07;;;;;;;0.00;0.00;;;;;;;11.40;100.00;99659.78;10413782;28;20080;-79
2023/04/12 09:37:13;;;;;;;0.00;0.00;;;;;;;11.20;100.00;99656.28;10403875;28;20046;-78
2023/04/12 09:42:15;;;;;;;0.85;0.40;;;;;;;11.29;100.00;99661.44;10414227;28;20036;-78
2023/04/12 09:47:39;;;;;;;0.07;0.03;;;;;;;11.00;100.00;99663.94;10412964;28;20077;-78
2023/04/12 09:52:40;;;;;;;0.00;0.00;;;;;;;12.13;100.00;99646.09;10415721;28;20048;-78
2023/04/12 09:57:43;;;;;;;0.25;0.10;;;;;;;11.65;100.00;99666.69;10412325;28;20471;-78
2023/04/12 10:02:47;;;;;;;0.30;0.17;;;;;;;11.92;100.00;99671.03;10410794;28;20033;-79
2023/04/12 10:07:49;;;;;;;0.00;0.00;;;;;;;11.11;100.00;99680.28;10404521;28;20052;-78
2023/04/12 10:12:51;;;;;;;2.30;0.98;;;;;;;12.32;100.00;99672.75;10408694;28;20064;-79
2023/04/12 10:17:54;;;;;;;0.05;0.05;;;;;;;12.42;100.00;99699.44;10407882;28;20041;-78
2023/04/12 10:22:58;;;;;;;0.28;0.10;;;;;;;12.03;100.00;99697.72;10408092;28;20080;-78
2023/04/12 10:28:13;;;;;;;0.08;0.08;;;;;;;12.44;100.00;99708.06;10405923;28;20053;-78
2023/04/12 10:33:17;;;;;;;0.90;0.57;;;;;;;12.60;100.00;99725.25;10398783;28;20469;-78
2023/04/12 10:38:18;;;;;;;0.13;0.10;;;;;;;13.11;100.00;99713.94;10409341;28;20120;-78
2023/04/12 10:43:27;;;;;;;0.20;0.20;;;;;;;13.40;100.00;99702.63;10406838;28;20073;-78
2023/04/12 10:48:30;;;;;;;2.72;1.00;;;;;;;13.49;100.00;99711.19;10399516;28;20053;-78
2023/04/12 10:53:31;;;;;;;0.20;0.10;;;;;;;12.90;100.00;99713.13;10396662;28;20053;-78
2023/04/12 10:58:45;;;;;;;0.20;0.20;;;;;;;13.38;100.00;99737.94;10392752;28;20551;-78
2023/04/12 11:04:19;;;;;;;0.47;0.30;;;;;;;13.75;100.00;99727.44;10403795;28;20046;-78
2023/04/12 11:09:35;;;;;;;0.10;0.10;;;;;;;13.51;100.00;99731.03;10403818;28;20452;-79
2023/04/12 11:14:37;;;;;;;10.05;0.43;;;;;;;14.15;100.00;99729.78;10407619;28;20125;-79
2023/04/12 11:19:52;;;;;;;1.75;1.00;;;;;;;15.22;100.00;99720.97;10400729;28;20072;-79
2023/04/12 11:24:56;;;;;;;0.00;0.00;;;;;;;14.37;100.00;99716.63;10422463;28;20459;-78
2023/04/12 11:29:59;;;;;;;0.82;0.35;;;;;;;14.46;100.00;99731.22;10420104;28;20153;-78
2023/04/12 11:35:01;;;;;;;0.13;0.10;;;;;;;14.21;100.00;99723.69;10411518;28;20049;-78
2023/04/12 11:40:08;;;;;;;3.28;1.98;;;;;;;15.52;100.00;99732.72;10398022;28;20088;-78
2023/04/12 11:45:10;;;;;;;2.05;0.80;;;;;;;14.94;100.00;99733.41;10409305;28;20480;-78
2023/04/12 11:50:29;;;;;;;0.07;0.07;;;;;;;15.12;100.00;99740.09;10422788;28;20722;-78
2023/04/12 11:55:31;;;;;;;0.75;0.75;;;;;;;14.80;100.00;99739.59;10404954;28;20041;-78
2023/04/12 12:00:32;;;;;;;0.70;0.70;;;;;;;14.12;100.00;99742.72;10401502;28;20499;-78
2023/04/12 12:05:37;;;;;;;0.00;0.00;;;;;;;14.36;100.00;99736.53;10401405;28;20096;-78
2023/04/12 12:10:39;;;;;;;0.47;0.13;;;;;;;14.42;100.00;99727.81;10409054;28;20129;-78
2023/04/12 12:16:00;;;;;;;0.00;0.00;;;;;;;14.84;100.00;99724.84;10405382;28;20045;-78
2023/04/12 12:21:02;;;;;;;0.00;0.00;;;;;;;14.48;100.00;99722.59;10389192;28;20081;-78
2023/04/12 12:26:05;;;;;;;0.00;0.00;;;;;;;13.74;100.00;99729.19;10401668;28;20042;-78
2023/04/12 12:31:24;;;;;;;0.05;0.05;;;;;;;12.98;100.00;99718.28;10407215;28;20127;-77
2023/04/12 12:36:33;;;;;;;0.00;0.00;;;;;;;13.00;100.00;99706.22;10403573;28;20665;-78
2023/04/12 12:41:35;;;;;;;0.00;0.00;;;;;;;13.14;100.00;99695.84;10411848;28;20068;-77
2023/04/12 12:46:37;;;;;;;0.00;0.00;;;;;;;13.79;100.00;99692.91;10409767;28;20053;-78
2023/04/12 12:51:41;;;;;;;0.20;0.20;;;;;;;13.25;100.00;99708.72;10416168;28;20071;-77
2023/04/12 12:56:43;;;;;;;0.00;0.00;;;;;;;12.32;100.00;99725.25;10411709;28;20042;-78
2023/04/12 13:01:45;;;;;;;1.08;0.85;;;;;;;11.46;100.00;99725.09;10386484;28;20076;-77
2023/04/12 13:06:46;;;;;;;0.00;0.00;;;;;;;11.01;100.00;99722.34;10415582;28;20112;-78
2023/04/12 13:11:48;;;;;;;0.00;0.00;;;;;;;11.45;100.00;99705.31;10407609;28;20050;-79
2023/04/12 13:16:49;;;;;;;0.20;0.20;;;;;;;11.69;100.00;99713.13;10409352;28;20065;-78
2023/04/12 13:21:51;;;;;;;0.00;0.00;;;;;;;11.30;100.00;99730.19;10410027;28;20394;-78
2023/04/12 13:26:54;;;;;;;1.13;0.38;;;;;;;11.41;100.00;99737.97;10391989;28;20479;-78
2023/04/12 13:31:56;;;;;;;0.00;0.00;;;;;;;11.36;100.00;99750.00;10406792;28;20117;-77
2023/04/12 13:36:58;;;;;;;0.00;0.00;;;;;;;11.52;100.00;99740.59;10393776;28;20049;-78
2023/04/12 13:42:01;;;;;;;0.45;0.20;;;;;;;12.13;100.00;99736.47;10398659;28;20048;-77
2023/04/12 13:47:02;;;;;;;0.00;0.00;;;;;;;12.20;100.00;99720.97;10391098;28;20046;-78
2023/04/12 13:52:04;;;;;;;0.08;0.08;;;;;;;12.77;100.00;99725.22;10408301;28;20555;-78
2023/04/12 13:57:06;;;;;;;0.75;0.50;;;;;;;12.09;100.00;99738.19;10402589;28;20513;-78
2023/04/12 14:02:07;;;;;;;0.00;0.00;;;;;;;12.36;100.00;99742.50;10390706;28;20133;-77
2023/04/12 14:07:09;;;;;;;0.45;0.17;;;;;;;10.74;100.00;99791.75;10399777;28;20164;-78
2023/04/12 14:12:10;;;;;;;0.20;0.20;;;;;;;10.30;100.00;99805.09;10408306;28;20049;-78
2023/04/12 14:17:12;;;;;;;0.20;0.20;;;;;;;10.01;100.00;99797.97;10399622;28;20076;-78
2023/04/12 14:22:13;;;;;;;0.00;0.00;;;;;;;10.59;100.00;99787.34;10421423;28;20043;-77
2023/04/12 14:27:15;;;;;;;0.20;0.13;;;;;;;10.37;100.00;99783.75;10400351;28;20045;-78
2023/04/12 14:32:18;;;;;;;0.00;0.00;;;;;;;11.01;100.00;99769.59;10409511;28;20060;-77
2023/04/12 14:37:20;;;;;;;0.00;0.00;;;;;;;11.19;100.00;99766.25;10410373;28;20059;-77
2023/04/12 14:42:21;;;;;;;2.40;0.55;;;;;;;10.78;100.00;99757.44;10401257;28;20069;-77
2023/04/12 14:47:23;;;;;;;0.08;0.08;;;;;;;10.80;100.00;99767.72;10418261;28;20083;-77
2023/04/12 14:52:25;;;;;;;0.00;0.00;;;;;;;11.08;100.00;99768.78;10394056;28;20049;-78
2023/04/12 14:57:26;;;;;;;0.25;0.08;;;;;;;10.69;100.00;99777.13;10420541;28;20058;-77
2023/04/12 15:02:28;;;;;;;0.17;0.17;;;;;;;10.91;100.00;99788.41;10409930;28;20565;-79
2023/04/12 15:07:29;;;;;;;0.38;0.38;;;;;;;10.47;100.00;99803.56;10408560;28;20128;-77
2023/04/12 15:12:34;;;;;;;0.30;0.20;;;;;;;10.59;100.00;99810.53;10403819;28;20072;-78
2023/04/12 15:17:37;;;;;;;1.45;0.73;;;;;;;10.46;100.00;99814.69;10403471;28;20520;-78
2023/04/12 15:22:39;;;;;;;0.03;0.03;;;;;;;10.85;100.00;99811.56;10388562;28;20072;-78
2023/04/12 15:27:42;;;;;;;10.60;0.85;;;;;;;10.85;100.00;99811.56;10408766;28;20125;-77
2023/04/12 15:32:45;;;;;;;0.10;0.10;;;;;;;10.78;100.00;99824.41;10409624;28;20041;-78
2023/04/12 15:37:47;;;;;;;0.00;0.00;;;;;;;10.56;100.00;99828.53;10404038;28;20276;-77
2023/04/12 15:42:48;;;;;;;0.10;0.10;;;;;;;10.61;100.00;99854.34;10410750;28;20571;-77
2023/04/12 15:47:50;;;;;;;0.00;0.00;;;;;;;10.52;100.00;99864.56;10396428;28;20061;-77
2023/04/12 15:52:54;;;;;;;0.35;0.10;;;;;;;10.63;100.00;99871.53;10406548;28;20099;-77
2023/04/12 15:57:55;;;;;;;0.00;0.00;;;;;;;10.66;100.00;99881.00;10405854;28;20045;-77
2023/04/12 16:02:57;;;;;;;0.10;0.10;;;;;;;10.43;100.00;99903.94;10406103;28;20073;-76
2023/04/12 16:07:59;;;;;;;0.00;0.00;;;;;;;8.12;100.00;99954.31;10402075;28;20078;-79
2023/04/12 16:13:01;;;;;;;0.00;0.00;;;;;;;8.17;100.00;99951.84;10417808;28;20045;-78
2023/04/12 16:18:02;;;;;;;0.00;0.00;;;;;;;7.77;100.00;99927.09;10394752;28;20501;-78
2023/04/12 16:23:04;;;;;;;0.00;0.00;;;;;;;8.16;100.00;99884.25;10408086;28;20048;-79
2023/04/12 16:28:06;;;;;;;0.00;0.00;;;;;;;8.03;100.00;99857.53;10392158;28;20526;-78
2023/04/12 16:33:09;;;;;;;0.50;0.50;;;;;;;8.70;100.00;99841.63;10400607;28;20109;-77
2023/04/12 16:38:12;;;;;;;2.08;1.75;;;;;;;8.98;100.00;99830.91;10379370;28;20045;-78
2023/04/12 16:43:16;;;;;;;0.75;0.43;;;;;;;9.05;100.00;99825.91;10399547;28;20055;-77
2023/04/12 16:48:17;;;;;;;0.73;0.43;;;;;;;8.93;100.00;99837.69;10398128;28;20109;-78
2023/04/12 16:53:19;;;;;;;0.00;0.00;;;;;;;8.91;100.00;99829.97;10392578;28;20047;-78
2023/04/12 16:58:22;;;;;;;0.00;0.00;;;;;;;8.30;100.00;99828.06;10395348;28;20723;-78
2023/04/12 17:03:24;;;;;;;0.00;0.00;;;;;;;9.09;100.00;99819.09;10403725;28;20076;-78
2023/04/12 17:08:26;;;;;;;0.00;0.00;;;;;;;9.67;100.00;99810.41;10421398;28;20064;-77
2023/04/12 17:13:29;;;;;;;0.00;0.00;;;;;;;9.39;100.00;99817.81;10424034;28;20056;-78
2023/04/12 17:18:30;;;;;;;0.20;0.20;;;;;;;9.79;100.00;99828.56;10380606;28;20081;-78
2023/04/12 17:23:32;;;;;;;0.00;0.00;;;;;;;9.19;100.00;99849.25;10402874;28;20128;-78
2023/04/12 17:28:34;;;;;;;0.90;0.60;;;;;;;9.03;100.00;99855.00;10405242;28;20123;-78
2023/04/12 17:33:36;;;;;;;0.10;0.00;;;;;;;9.10;100.00;99856.81;10418503;28;20053;-77
2023/04/12 17:38:38;;;;;;;0.00;0.00;;;;;;;9.01;100.00;99859.22;10409155;28;20049;-78
2023/04/12 17:43:39;;;;;;;0.00;0.00;;;;;;;8.68;100.00;99853.56;10407678;28;20124;-77
2023/04/12 17:48:41;;;;;;;0.00;0.00;;;;;;;8.81;100.00;99854.66;10408057;28;20045;-77
2023/04/12 17:53:42;;;;;;;0.88;0.10;;;;;;;8.55;100.00;99852.50;10399717;28;20064;-78
2023/04/12 17:58:44;;;;;;;0.00;0.00;;;;;;;8.32;100.00;99859.78;10381768;28;20127;-78
2023/04/12 18:03:46;;;;;;;0.00;0.00;;;;;;;8.35;100.00;99864.09;10401827;28;20056;-78
2023/04/12 18:08:48;;;;;;;0.08;0.00;;;;;;;8.06;100.00;99866.97;10403155;28;20572;-77
2023/04/12 18:13:49;;;;;;;0.43;0.40;;;;;;;8.10;100.00;99868.75;10401814;28;20046;-78
2023/04/12 18:18:51;;;;;;;0.32;0.32;;;;;;;8.50;100.00;99859.25;10403928;28;20160;-78
2023/04/12 18:23:52;;;;;;;3.80;0.63;;;;;;;8.59;100.00;99866.25;10407543;28;20046;-78
2023/04/12 18:28:54;;;;;;;2.42;1.63;;;;;;;8.59;100.00;99862.84;10411044;28;20116;-78
2023/04/12 18:33:56;;;;;;;2.50;2.10;;;;;;;8.76;100.00;99869.09;10407953;28;20049;-78
2023/04/12 18:38:58;;;;;;;0.73;0.73;;;;;;;8.57;100.00;99876.50;10409361;28;20042;-77
2023/04/12 18:43:59;;;;;;;3.80;2.20;;;;;;;8.61;100.00;99867.16;10413355;28;20061;-77
2023/04/12 18:49:03;;;;;;;11.85;5.15;;;;;;;8.38;100.00;99869.25;10414190;28;20124;-77
2023/04/12 18:54:07;;;;;;;8.18;3.67;;;;;;;8.05;100.00;99860.97;10411868;28;20092;-77
2023/04/12 18:59:14;;;;;;;1.27;1.15;;;;;;;8.35;100.00;99861.53;10403932;28;20061;-77
2023/04/12 19:04:16;;;;;;;2.90;1.40;;;;;;;8.26;100.00;99864.78;10404661;28;20084;-77
2023/04/12 19:09:18;;;;;;;0.52;0.52;;;;;;;7.80;100.00;99858.75;10399801;28;20054;-77
2023/04/12 19:14:19;;;;;;;0.10;0.10;;;;;;;7.87;100.00;99858.91;10402786;28;20419;-77
2023/04/12 19:19:21;;;;;;;0.32;0.13;;;;;;;7.90;100.00;99861.53;10405671;28;20433;-78
2023/04/12 19:24:23;;;;;;;0.15;0.08;;;;;;;7.54;100.00;99862.53;10400366;28;20041;-77
2023/04/12 19:29:24;;;;;;;0.30;0.30;;;;;;;7.65;100.00;99859.28;10407895;28;20145;-77
2023/04/12 19:34:26;;;;;;;1.85;1.40;;;;;;;7.71;100.00;99854.28;10419594;28;20464;-77
2023/04/12 19:39:28;;;;;;;0.20;0.20;;;;;;;7.52;100.00;99859.03;10408359;28;20052;-77
2023/04/12 19:44:30;;;;;;;0.00;0.00;;;;;;;7.68;100.00;99855.09;10424462;28;20045;-78
2023/04/12 19:49:32;;;;;;;0.93;0.43;;;;;;;7.66;100.00;99838.84;10419510;28;20049;-77
2023/04/12 19:54:34;;;;;;;0.15;0.10;;;;;;;7.81;100.00;99835.72;10419978;28;20128;-78
2023/04/12 19:59:35;;;;;;;0.10;0.10;;;;;;;7.58;100.00;99838.66;10406388;28;20037;-78
2023/04/12 20:04:38;;;;;;;0.05;0.05;;;;;;;7.72;100.00;99835.50;10409752;28;20037;-77
2023/04/12 20:09:40;;;;;;;0.00;0.00;;;;;;;7.50;100.00;99824.81;10405807;28;20041;-77
2023/04/12 20:14:41;;;;;;;0.13;0.13;;;;;;;7.78;100.00;99831.38;10410966;28;20077;-77
2023/04/12 20:19:43;;;;;;;0.10;0.10;;;;;;;7.56;100.00;99819.81;10409530;28;20564;-77
2023/04/12 20:24:46;;;;;;;0.00;0.00;;;;;;;7.62;100.00;99808.84;10399924;28;20423;-77
2023/04/12 20:29:48;;;;;;;0.00;0.00;;;;;;;7.49;100.00;99823.09;10401517;28;20057;-78
2023/04/12 20:34:49;;;;;;;0.00;0.00;;;;;;;7.70;100.00;99811.56;10411510;28;20878;-77
2023/04/12 20:39:51;;;;;;;0.13;0.13;;;;;;;7.63;100.00;99806.28;10410150;28;20738;-78
2023/04/12 20:44:53;;;;;;;0.08;0.08;;;;;;;7.79;100.00;99804.03;10409391;28;20045;-77
2023/04/12 20:49:55;;;;;;;0.28;0.28;;;;;;;7.69;100.00;99790.19;10402296;28;20516;-77
2023/04/12 20:54:56;;;;;;;0.10;0.10;;;;;;;7.97;100.00;99785.56;10418326;28;20076;-78
2023/04/12 20:59:58;;;;;;;0.00;0.00;;;;;;;7.94;100.00;99778.69;10404865;28;20049;-77
2023/04/12 21:04:59;;;;;;;0.57;0.10;;;;;;;7.95;100.00;99771.88;10410250;28;20045;-78
2023/04/12 21:10:01;;;;;;;0.80;0.63;;;;;;;7.74;100.00;99782.56;10407190;28;20049;-78
2023/04/12 21:15:04;;;;;;;0.70;0.70;;;;;;;7.57;100.00;99777.97;10402033;28;20045;-77
2023/04/12 21:20:12;;;;;;;0.00;0.00;;;;;;;7.81;100.00;99758.78;10406188;28;20063;-78
2023/04/12 21:25:15;;;;;;;0.13;0.13;;;;;;;7.67;100.00;99765.34;10388108;28;20122;-76
2023/04/12 21:30:17;;;;;;;0.00;0.00;;;;;;;7.70;100.00;99752.59;10401173;28;20504;-77
2023/04/12 21:35:22;;;;;;;0.32;0.20;;;;;;;7.84;100.00;99748.59;10406143;28;20091;-76
2023/04/12 21:40:23;;;;;;;0.22;0.22;;;;;;;7.68;100.00;99741.44;10408610;28;20060;-77
2023/04/12 21:45:26;;;;;;;0.32;0.20;;;;;;;7.96;100.00;99721.44;10405470;28;20037;-77
2023/04/12 21:50:27;;;;;;;0.00;0.00;;;;;;;7.91;100.00;99727.34;10407808;28;20051;-77
2023/04/12 21:55:29;;;;;;;0.13;0.10;;;;;;;7.81;100.00;99722.88;10407358;28;20057;-77
2023/04/12 22:00:30;;;;;;;0.22;0.22;;;;;;;7.80;100.00;99718.59;10405894;28;20050;-77
2023/04/12 22:05:34;;;;;;;0.10;0.10;;;;;;;7.63;100.00;99724.25;10405067;28;20710;-77
2023/04/12 22:10:36;;;;;;;0.10;0.10;;;;;;;7.73;100.00;99719.31;10405326;28;20520;-77
2023/04/12 22:15:37;;;;;;;0.00;0.00;;;;;;;7.65;100.00;99715.75;10409673;28;20504;-77
2023/04/12 22:20:40;;;;;;;0.00;0.00;;;;;;;7.99;100.00;99712.09;10401775;28;20045;-77
2023/04/12 22:25:41;;;;;;;0.03;0.03;;;;;;;7.89;100.00;99695.69;10405790;28;20563;-77
2023/04/12 22:30:45;;;;;;;0.00;0.00;;;;;;;7.74;100.00;99691.13;10394993;28;20037;-78
2023/04/12 22:35:47;;;;;;;0.00;0.00;;;;;;;8.06;100.00;99677.16;10409859;28;20045;-79
2023/04/12 22:40:49;;;;;;;0.00;0.00;;;;;;;7.98;100.00;99666.75;10400939;28;20084;-77
2023/04/12 22:45:52;;;;;;;0.00;0.00;;;;;;;7.94;100.00;99665.00;10406923;28;20121;-77
2023/04/12 22:50:54;;;;;;;0.08;0.08;;;;;;;8.03;100.00;99656.56;10400197;28;20041;-77
2023/04/12 22:55:56;;;;;;;0.03;0.03;;;;;;;8.09;100.00;99641.28;10414092;28;20494;-77
2023/04/12 23:00:57;;;;;;;0.20;0.17;;;;;;;8.02;100.00;99634.31;10403783;28;20141;-77
2023/04/12 23:05:59;;;;;;;0.45;0.45;;;;;;;8.06;100.00;99630.97;10416828;28;20083;-78
2023/04/12 23:11:02;;;;;;;0.10;0.10;;;;;;;8.00;100.00;99628.31;10417659;28;20128;-78
2023/04/12 23:16:05;;;;;;;0.00;0.00;;;;;;;8.21;100.00;99620.97;10401837;28;20136;-77
2023/04/12 23:21:09;;;;;;;0.15;0.15;;;;;;;8.00;100.00;99626.59;10413089;28;20045;-78
2023/04/12 23:26:12;;;;;;;0.30;0.28;;;;;;;8.27;100.00;99617.59;10423800;28;20045;-78